Time;durP1;ratioP1;P1;durP2;ratioP2;P2;SDS_P1;SDS_P2;PMS_P1;PMS_P2;Temp;Humidity;BMP_temperature;BMP_pressure;BME280_temperature;BME280_humidity;BME280_pressure;Samples;Min_cycle;Max_cycle;Signal;HPM_P1;HPM_P2
2021/06/30 00:00:35;;;;;;;3.50;1.92;;;;;;;;;;5081685;28;20029;-79
2021/06/30 00:03:01;;;;;;;5.60;1.63;;;;;;;;;;5082403;28;20036;-79
2021/06/30 00:05:26;;;;;;;3.22;1.77;;;;;;;;;;5080345;28;20060;-79
2021/06/30 00:07:53;;;;;;;4.38;2.03;;;;;;;;;;5080966;28;20033;-79
2021/06/30 00:10:18;;;;;;;2.45;1.70;;;;;;;;;;5082053;28;20040;-79
2021/06/30 00:12:44;;;;;;;2.63;2.05;;;;;;;;;;5081494;28;20028;-79
2021/06/30 00:15:17;;;;;;;3.47;1.58;;;;;;;;;;5080941;28;20036;-79
2021/06/30 00:17:44;;;;;;;3.83;2.00;;;;;;;;;;5079381;28;20091;-79
2021/06/30 00:20:11;;;;;;;5.05;1.88;;;;;;;;;;5081391;28;20028;-79
2021/06/30 00:22:36;;;;;;;7.22;2.50;;;;;;;;;;5080948;28;20040;-79
2021/06/30 00:25:02;;;;;;;5.80;1.90;;;;;;;;;;5079772;28;20031;-79
2021/06/30 00:27:28;;;;;;;3.67;2.00;;;;;;;;;;5079821;28;20055;-79
2021/06/30 00:29:53;;;;;;;4.75;1.77;;;;;;;;;;5080508;28;20479;-79
2021/06/30 00:32:19;;;;;;;4.85;2.17;;;;;;;;;;5082446;28;20036;-78
2021/06/30 00:34:44;;;;;;;3.28;1.90;;;;;;;;;;5081312;28;20043;-79
2021/06/30 00:37:09;;;;;;;4.38;2.00;;;;;;;;;;5080979;28;20071;-79
2021/06/30 00:39:35;;;;;;;3.63;1.98;;;;;;;;;;5079895;28;20045;-79
2021/06/30 00:42:00;;;;;;;3.58;2.03;;;;;;;;;;5078882;28;20028;-79
2021/06/30 00:44:26;;;;;;;3.83;1.95;;;;;;;;;;5080764;28;20135;-78
2021/06/30 00:46:51;;;;;;;4.85;2.40;;;;;;;;;;5081369;28;20083;-78
2021/06/30 00:49:17;;;;;;;3.42;1.95;;;;;;;;;;5081253;28;20062;-78
2021/06/30 00:51:42;;;;;;;7.95;3.13;;;;;;;;;;5081471;28;20111;-78
2021/06/30 00:54:07;;;;;;;2.47;1.95;;;;;;;;;;5079322;28;20508;-78
2021/06/30 00:56:33;;;;;;;9.60;2.42;;;;;;;;;;5080334;28;20028;-79
2021/06/30 00:59:00;;;;;;;3.22;2.40;;;;;;;;;;5080579;28;20067;-79
2021/06/30 01:01:26;;;;;;;4.55;2.70;;;;;;;;;;5080028;28;20028;-79
2021/06/30 01:03:52;;;;;;;7.53;3.30;;;;;;;;;;5079960;28;20035;-79
2021/06/30 01:06:18;;;;;;;7.57;2.55;;;;;;;;;;5079424;28;20123;-79
2021/06/30 01:08:44;;;;;;;9.73;2.67;;;;;;;;;;5079785;28;20039;-79
2021/06/30 01:11:11;;;;;;;3.67;2.40;;;;;;;;;;5079135;28;20102;-79
2021/06/30 01:13:38;;;;;;;5.03;2.50;;;;;;;;;;5078512;28;20086;-79
2021/06/30 01:16:04;;;;;;;2.65;2.45;;;;;;;;;;5079501;28;20039;-80
2021/06/30 01:18:31;;;;;;;3.83;2.83;;;;;;;;;;5082311;28;20440;-80
2021/06/30 01:20:58;;;;;;;6.22;2.58;;;;;;;;;;5082454;28;20088;-80
2021/06/30 01:23:24;;;;;;;5.80;2.65;;;;;;;;;;5082438;28;20100;-80
2021/06/30 01:25:51;;;;;;;5.60;2.70;;;;;;;;;;5081772;28;20078;-80
2021/06/30 01:28:17;;;;;;;6.38;2.55;;;;;;;;;;5081328;28;20043;-80
2021/06/30 01:30:45;;;;;;;4.07;2.60;;;;;;;;;;5081286;28;20060;-80
2021/06/30 01:33:11;;;;;;;6.38;2.80;;;;;;;;;;5081609;28;20393;-80
2021/06/30 01:35:37;;;;;;;4.45;2.80;;;;;;;;;;5080939;28;20040;-80
2021/06/30 01:38:03;;;;;;;5.32;2.75;;;;;;;;;;5080783;28;20051;-80
2021/06/30 01:40:29;;;;;;;7.03;2.92;;;;;;;;;;5081262;28;20115;-80
2021/06/30 01:42:56;;;;;;;3.55;2.97;;;;;;;;;;5080451;28;20032;-80
2021/06/30 01:45:22;;;;;;;4.18;2.63;;;;;;;;;;5078920;28;20410;-80
2021/06/30 01:47:48;;;;;;;6.25;2.80;;;;;;;;;;5080512;28;20036;-80
2021/06/30 01:50:15;;;;;;;8.00;3.15;;;;;;;;;;5080428;28;20468;-80
2021/06/30 01:52:41;;;;;;;7.75;3.15;;;;;;;;;;5080248;28;20040;-79
2021/06/30 01:55:07;;;;;;;5.72;2.85;;;;;;;;;;5079997;28;20035;-79
2021/06/30 01:57:39;;;;;;;14.88;3.83;;;;;;;;;;5081340;28;20025;-80
2021/06/30 02:00:05;;;;;;;6.32;2.85;;;;;;;;;;5081889;28;20447;-80
2021/06/30 02:02:31;;;;;;;4.07;2.70;;;;;;;;;;5080283;28;20471;-80
2021/06/30 02:05:10;;;;;;;8.82;3.10;;;;;;;;;;5080870;28;20025;-80
2021/06/30 02:07:36;;;;;;;4.53;2.63;;;;;;;;;;5080689;28;20490;-80
2021/06/30 02:10:08;;;;;;;3.47;2.75;;;;;;;;;;5080600;28;20020;-80
2021/06/30 02:12:34;;;;;;;6.55;3.10;;;;;;;;;;5080373;28;20123;-79
2021/06/30 02:15:00;;;;;;;7.95;2.75;;;;;;;;;;5079412;28;20032;-77
2021/06/30 02:17:26;;;;;;;7.30;2.92;;;;;;;;;;5085821;28;20024;-79
2021/06/30 02:19:51;;;;;;;5.25;2.65;;;;;;;;;;5081691;28;20039;-78
2021/06/30 02:22:17;;;;;;;3.45;2.42;;;;;;;;;;5078497;28;20453;-78
2021/06/30 02:24:43;;;;;;;4.95;3.17;;;;;;;;;;5085693;28;20043;-78
2021/06/30 02:27:09;;;;;;;6.18;3.00;;;;;;;;;;5080010;28;20112;-79
2021/06/30 02:29:34;;;;;;;4.22;2.53;;;;;;;;;;5085906;28;20037;-78
2021/06/30 02:32:00;;;;;;;5.22;2.80;;;;;;;;;;5085408;28;20041;-78
2021/06/30 02:34:25;;;;;;;6.07;2.70;;;;;;;;;;5081595;28;20032;-77
2021/06/30 02:36:51;;;;;;;3.05;2.70;;;;;;;;;;5084501;28;20044;-78
2021/06/30 02:39:17;;;;;;;4.93;2.72;;;;;;;;;;5085054;28;20033;-78
2021/06/30 02:41:48;;;;;;;5.43;3.30;;;;;;;;;;5083654;28;20031;-78
2021/06/30 02:44:14;;;;;;;4.57;3.17;;;;;;;;;;5082997;28;20406;-78
2021/06/30 02:46:39;;;;;;;3.65;2.90;;;;;;;;;;5082973;28;20479;-78
2021/06/30 02:49:05;;;;;;;4.32;3.33;;;;;;;;;;5082428;28;20125;-78
2021/06/30 02:51:31;;;;;;;4.97;2.90;;;;;;;;;;5077024;28;20041;-82
2021/06/30 02:53:56;;;;;;;6.32;3.20;;;;;;;;;;5082651;28;20072;-79
2021/06/30 02:56:21;;;;;;;8.75;3.50;;;;;;;;;;5082227;28;20028;-80
2021/06/30 02:58:48;;;;;;;6.20;3.20;;;;;;;;;;5081217;28;20055;-80
2021/06/30 03:01:14;;;;;;;4.22;3.08;;;;;;;;;;5079637;28;20064;-79
2021/06/30 03:03:40;;;;;;;5.10;2.50;;;;;;;;;;5077030;28;20051;-79
2021/06/30 03:06:05;;;;;;;3.15;2.35;;;;;;;;;;5077527;28;20021;-79
2021/06/30 03:08:31;;;;;;;9.00;3.33;;;;;;;;;;5081134;28;20070;-80
2021/06/30 03:10:56;;;;;;;5.07;2.83;;;;;;;;;;5081003;28;20041;-80
2021/06/30 03:13:21;;;;;;;2.92;2.63;;;;;;;;;;5079252;28;20115;-80
2021/06/30 03:15:48;;;;;;;6.00;4.20;;;;;;;;;;5080812;28;20055;-80
2021/06/30 03:18:13;;;;;;;3.78;3.40;;;;;;;;;;5082782;28;20036;-80
2021/06/30 03:20:39;;;;;;;8.20;3.60;;;;;;;;;;5084612;28;20043;-80
2021/06/30 03:23:05;;;;;;;11.60;3.90;;;;;;;;;;5088483;28;20036;-80
2021/06/30 03:25:30;;;;;;;9.48;3.72;;;;;;;;;;5071352;28;20040;-80
2021/06/30 03:27:55;;;;;;;5.80;3.55;;;;;;;;;;5067715;28;20044;-80
2021/06/30 03:30:21;;;;;;;5.70;3.97;;;;;;;;;;5082835;28;20475;-80
2021/06/30 03:32:46;;;;;;;4.70;3.90;;;;;;;;;;5064378;28;20037;-80
2021/06/30 03:35:12;;;;;;;4.60;3.65;;;;;;;;;;5080088;28;20072;-80
2021/06/30 03:37:37;;;;;;;6.95;4.13;;;;;;;;;;5064382;28;20068;-80
2021/06/30 03:40:04;;;;;;;5.72;3.97;;;;;;;;;;5064850;28;20064;-80
2021/06/30 03:42:29;;;;;;;5.25;4.22;;;;;;;;;;5064048;28;20079;-80
2021/06/30 03:44:54;;;;;;;8.98;3.92;;;;;;;;;;5062984;28;20052;-80
2021/06/30 03:47:20;;;;;;;4.43;3.92;;;;;;;;;;5062962;28;20033;-80
2021/06/30 03:49:45;;;;;;;6.30;3.65;;;;;;;;;;5062564;28;20036;-80
2021/06/30 03:52:11;;;;;;;6.70;4.53;;;;;;;;;;5061260;28;20044;-80
2021/06/30 03:54:36;;;;;;;4.47;3.63;;;;;;;;;;5062659;28;20045;-80
2021/06/30 03:57:02;;;;;;;10.23;3.95;;;;;;;;;;5062328;28;20529;-80
2021/06/30 03:59:27;;;;;;;6.10;4.28;;;;;;;;;;5061533;28;20486;-80
2021/06/30 04:01:53;;;;;;;9.07;4.10;;;;;;;;;;5061527;28;20036;-80
2021/06/30 04:04:19;;;;;;;8.18;4.22;;;;;;;;;;5076580;28;20045;-80
2021/06/30 04:06:45;;;;;;;4.82;3.75;;;;;;;;;;5061522;28;20068;-80
2021/06/30 04:09:11;;;;;;;10.75;4.57;;;;;;;;;;5076948;28;20041;-80
2021/06/30 04:11:36;;;;;;;8.18;4.00;;;;;;;;;;5061290;28;20040;-79
2021/06/30 04:14:02;;;;;;;9.30;4.25;;;;;;;;;;5061022;28;20433;-80
2021/06/30 04:16:27;;;;;;;9.10;4.65;;;;;;;;;;5061903;28;20037;-80
2021/06/30 04:18:53;;;;;;;9.75;4.20;;;;;;;;;;5061437;28;20402;-80
2021/06/30 04:21:18;;;;;;;7.07;3.55;;;;;;;;;;5061993;28;20463;-80
2021/06/30 04:23:43;;;;;;;7.05;3.97;;;;;;;;;;5065058;28;20140;-80
2021/06/30 04:26:09;;;;;;;5.50;3.28;;;;;;;;;;5079575;28;20041;-80
2021/06/30 04:28:34;;;;;;;4.75;3.33;;;;;;;;;;5081397;28;20103;-80
2021/06/30 04:31:00;;;;;;;11.13;3.45;;;;;;;;;;5082982;28;20432;-80
2021/06/30 04:33:26;;;;;;;4.55;2.53;;;;;;;;;;5084465;28;20039;-81
2021/06/30 04:35:51;;;;;;;5.60;3.15;;;;;;;;;;5084205;28;20048;-81
2021/06/30 04:38:18;;;;;;;4.43;2.90;;;;;;;;;;5082495;28;20493;-80
2021/06/30 04:40:45;;;;;;;7.72;3.53;;;;;;;;;;5082641;28;20482;-81
2021/06/30 04:43:10;;;;;;;6.90;3.08;;;;;;;;;;5083298;28;20040;-81
2021/06/30 04:45:36;;;;;;;10.57;3.88;;;;;;;;;;5082086;28;20086;-80
2021/06/30 04:48:02;;;;;;;4.13;3.25;;;;;;;;;;5083124;28;20051;-80
2021/06/30 04:50:27;;;;;;;4.50;2.80;;;;;;;;;;5083076;28;20474;-80
2021/06/30 04:52:53;;;;;;;3.75;3.22;;;;;;;;;;5082089;28;20029;-80
2021/06/30 04:55:18;;;;;;;3.45;3.00;;;;;;;;;;5083487;28;20418;-80
2021/06/30 04:57:43;;;;;;;5.47;2.97;;;;;;;;;;5082030;28;20031;-80
2021/06/30 05:00:10;;;;;;;3.47;3.10;;;;;;;;;;5081672;28;20111;-80
2021/06/30 05:02:35;;;;;;;8.00;4.22;;;;;;;;;;5080328;28;20033;-80
2021/06/30 05:05:02;;;;;;;6.20;2.85;;;;;;;;;;5081318;28;20029;-80
2021/06/30 05:07:28;;;;;;;6.55;3.35;;;;;;;;;;5082211;28;20501;-80
2021/06/30 05:09:53;;;;;;;5.57;2.80;;;;;;;;;;5079837;28;20046;-80
2021/06/30 05:12:18;;;;;;;5.45;2.72;;;;;;;;;;5080964;28;20046;-80
2021/06/30 05:14:44;;;;;;;5.65;2.20;;;;;;;;;;5080329;28;20070;-80
2021/06/30 05:17:13;;;;;;;9.77;2.35;;;;;;;;;;5078786;28;20086;-79
2021/06/30 05:19:38;;;;;;;2.65;2.08;;;;;;;;;;5075541;28;20041;-80
2021/06/30 05:22:05;;;;;;;3.20;2.40;;;;;;;;;;5076182;28;20082;-79
2021/06/30 05:24:31;;;;;;;3.05;2.50;;;;;;;;;;5077142;28;20474;-79
2021/06/30 05:26:56;;;;;;;4.22;2.38;;;;;;;;;;5077145;28;20043;-80
2021/06/30 05:29:22;;;;;;;3.55;2.13;;;;;;;;;;5082481;28;20037;-81
2021/06/30 05:31:47;;;;;;;2.00;1.80;;;;;;;;;;5080145;28;20043;-80
2021/06/30 05:34:13;;;;;;;2.53;1.60;;;;;;;;;;5079155;28;20119;-79
2021/06/30 05:36:40;;;;;;;5.60;2.25;;;;;;;;;;5083964;28;20490;-79
2021/06/30 05:39:05;;;;;;;2.67;1.73;;;;;;;;;;5079833;28;20044;-80
2021/06/30 05:41:31;;;;;;;2.58;2.03;;;;;;;;;;5082258;28;20054;-80
2021/06/30 05:43:56;;;;;;;2.53;1.92;;;;;;;;;;5079442;28;20071;-79
2021/06/30 05:46:22;;;;;;;3.15;2.20;;;;;;;;;;5082440;28;20048;-80
2021/06/30 05:48:47;;;;;;;3.20;1.80;;;;;;;;;;5081008;28;20060;-80
2021/06/30 05:51:13;;;;;;;6.35;1.85;;;;;;;;;;5084316;28;20037;-80
2021/06/30 05:53:39;;;;;;;6.10;2.28;;;;;;;;;;5081477;28;20048;-80
2021/06/30 05:56:06;;;;;;;2.50;2.00;;;;;;;;;;5084085;28;20033;-81
2021/06/30 05:58:32;;;;;;;3.95;2.10;;;;;;;;;;5086353;28;20158;-81
2021/06/30 06:00:58;;;;;;;3.10;2.00;;;;;;;;;;5089669;28;20032;-78
2021/06/30 06:03:23;;;;;;;1.60;1.50;;;;;;;;;;5090870;28;20100;-80
2021/06/30 06:05:49;;;;;;;2.60;1.85;;;;;;;;;;5089970;28;20064;-79
2021/06/30 06:08:14;;;;;;;2.95;2.20;;;;;;;;;;5083954;28;20051;-79
2021/06/30 06:10:39;;;;;;;5.47;2.53;;;;;;;;;;5089169;28;20040;-79
2021/06/30 06:13:05;;;;;;;4.20;1.80;;;;;;;;;;5063451;28;20048;-78
2021/06/30 06:15:30;;;;;;;2.35;1.50;;;;;;;;;;5066782;28;20100;-78
2021/06/30 06:17:56;;;;;;;1.98;1.60;;;;;;;;;;5070024;28;20064;-78
2021/06/30 06:20:22;;;;;;;7.00;1.70;;;;;;;;;;5070104;28;20037;-79
2021/06/30 06:22:47;;;;;;;3.60;1.40;;;;;;;;;;5068643;28;20037;-79
2021/06/30 06:25:13;;;;;;;3.00;1.52;;;;;;;;;;5083056;28;20028;-79
2021/06/30 06:27:39;;;;;;;1.60;1.27;;;;;;;;;;5088860;28;20490;-79
2021/06/30 06:30:06;;;;;;;2.70;1.60;;;;;;;;;;5088358;28;20037;-78
2021/06/30 06:32:32;;;;;;;5.00;1.67;;;;;;;;;;5086928;28;20404;-79
2021/06/30 06:34:57;;;;;;;5.03;1.50;;;;;;;;;;5087524;28;20036;-79
2021/06/30 06:37:23;;;;;;;2.03;1.40;;;;;;;;;;5083203;28;20056;-80
2021/06/30 06:39:48;;;;;;;5.18;2.05;;;;;;;;;;5085210;28;20486;-81
2021/06/30 06:42:13;;;;;;;4.65;1.75;;;;;;;;;;5081788;28;20033;-79
2021/06/30 06:44:41;;;;;;;3.08;1.35;;;;;;;;;;5083092;28;20040;-79
2021/06/30 06:47:06;;;;;;;2.65;1.77;;;;;;;;;;5087206;28;20048;-82
2021/06/30 06:49:32;;;;;;;3.70;1.83;;;;;;;;;;5084776;28;20036;-82
2021/06/30 06:51:59;;;;;;;2.92;2.28;;;;;;;;;;5087227;28;20021;-83
2021/06/30 06:54:25;;;;;;;2.55;1.60;;;;;;;;;;5088364;28;20082;-78
2021/06/30 06:56:51;;;;;;;6.00;1.50;;;;;;;;;;5079007;28;20406;-77
2021/06/30 06:59:16;;;;;;;1.95;1.50;;;;;;;;;;5080827;28;20531;-77
2021/06/30 07:01:41;;;;;;;5.32;1.80;;;;;;;;;;5076923;28;20054;-77
2021/06/30 07:04:07;;;;;;;4.32;1.80;;;;;;;;;;5078486;28;20036;-77
2021/06/30 07:06:32;;;;;;;3.10;1.48;;;;;;;;;;5081219;28;20356;-79
2021/06/30 07:08:58;;;;;;;1.85;1.70;;;;;;;;;;5081146;28;20051;-77
2021/06/30 07:11:23;;;;;;;1.63;1.52;;;;;;;;;;5079599;28;20401;-76
2021/06/30 07:13:49;;;;;;;2.42;1.67;;;;;;;;;;5079121;28;20090;-77
2021/06/30 07:16:15;;;;;;;3.47;1.70;;;;;;;;;;5082508;28;20040;-79
2021/06/30 07:18:40;;;;;;;1.77;1.48;;;;;;;;;;5082553;28;20048;-78
2021/06/30 07:21:08;;;;;;;4.25;1.80;;;;;;;;;;5078145;28;20021;-78
2021/06/30 07:23:34;;;;;;;2.15;1.55;;;;;;;;;;5080052;28;20174;-76
2021/06/30 07:26:00;;;;;;;3.38;1.52;;;;;;;;;;5079910;28;20513;-78
2021/06/30 07:28:25;;;;;;;5.80;2.30;;;;;;;;;;5081408;28;20040;-78
2021/06/30 07:30:51;;;;;;;2.47;1.88;;;;;;;;;;5077078;28;20071;-78
2021/06/30 07:33:17;;;;;;;6.72;2.10;;;;;;;;;;5076386;28;20056;-78
2021/06/30 07:35:42;;;;;;;3.25;2.17;;;;;;;;;;5078209;28;20032;-77
2021/06/30 07:38:08;;;;;;;3.53;2.63;;;;;;;;;;5080410;28;20043;-78
2021/06/30 07:40:34;;;;;;;4.72;2.60;;;;;;;;;;5080609;28;20084;-79
2021/06/30 07:43:00;;;;;;;2.67;2.33;;;;;;;;;;5079272;28;20451;-79
2021/06/30 07:45:26;;;;;;;4.60;2.80;;;;;;;;;;5079587;28;20084;-79
2021/06/30 07:47:51;;;;;;;4.68;2.20;;;;;;;;;;5081268;28;20047;-79
2021/06/30 07:50:17;;;;;;;5.95;2.63;;;;;;;;;;5080626;28;20032;-79
2021/06/30 07:52:45;;;;;;;4.05;2.45;;;;;;;;;;5081111;28;20045;-78
2021/06/30 07:55:11;;;;;;;2.53;2.28;;;;;;;;;;5081073;28;20504;-78
2021/06/30 07:57:37;;;;;;;3.50;2.72;;;;;;;;;;5082743;28;20119;-77
2021/06/30 08:00:04;;;;;;;39.80;24.63;;;;;;;;;;5085687;28;20127;-79
2021/06/30 08:02:38;;;;;;;8.98;5.50;;;;;;;;;;5084065;28;20398;-78
2021/06/30 08:05:08;;;;;;;7.43;5.45;;;;;;;;;;5084674;28;20075;-79
2021/06/30 08:07:34;;;;;;;7.95;3.17;;;;;;;;;;5085479;28;20037;-78
2021/06/30 08:10:00;;;;;;;2.75;2.25;;;;;;;;;;5083985;28;20431;-78
2021/06/30 08:12:26;;;;;;;5.20;2.53;;;;;;;;;;5076568;28;20067;-78
2021/06/30 08:14:51;;;;;;;2.55;2.22;;;;;;;;;;5078974;28;20028;-77
2021/06/30 08:17:17;;;;;;;4.28;2.13;;;;;;;;;;5083446;28;20653;-79
2021/06/30 08:19:42;;;;;;;2.63;2.25;;;;;;;;;;5083280;28;20099;-80
2021/06/30 08:22:10;;;;;;;2.95;2.45;;;;;;;;;;5085166;28;20036;-80
2021/06/30 08:24:41;;;;;;;4.00;2.75;;;;;;;;;;5082127;28;20487;-80
2021/06/30 08:27:08;;;;;;;4.15;2.60;;;;;;;;;;5083780;28;20044;-80
2021/06/30 08:29:34;;;;;;;5.65;2.67;;;;;;;;;;5081483;28;20041;-79
2021/06/30 08:31:59;;;;;;;4.95;2.88;;;;;;;;;;5084205;28;20036;-82
2021/06/30 08:34:26;;;;;;;3.55;3.25;;;;;;;;;;5080604;28;20051;-79
2021/06/30 08:36:57;;;;;;;4.30;3.50;;;;;;;;;;5083855;28;20466;-80
2021/06/30 08:39:23;;;;;;;4.28;2.72;;;;;;;;;;5084606;28;20082;-80
2021/06/30 08:41:49;;;;;;;4.43;3.05;;;;;;;;;;5084453;28;20494;-80
2021/06/30 08:44:14;;;;;;;4.35;2.90;;;;;;;;;;5084128;28;20381;-80
2021/06/30 08:46:40;;;;;;;5.85;3.05;;;;;;;;;;5083039;28;20049;-80
2021/06/30 08:49:06;;;;;;;4.75;2.85;;;;;;;;;;5082842;28;20060;-81
2021/06/30 08:51:32;;;;;;;7.20;3.22;;;;;;;;;;5082167;28;20054;-81
2021/06/30 08:53:59;;;;;;;4.82;3.85;;;;;;;;;;5082280;28;20098;-81
2021/06/30 08:56:31;;;;;;;3.42;3.10;;;;;;;;;;5083348;28;20036;-82
2021/06/30 08:58:58;;;;;;;5.15;2.90;;;;;;;;;;5080408;28;20123;-82
2021/06/30 09:01:25;;;;;;;4.18;2.80;;;;;;;;;;5080582;28;20037;-82
2021/06/30 09:03:53;;;;;;;4.07;2.85;;;;;;;;;;5082732;28;20032;-82
2021/06/30 09:06:19;;;;;;;3.03;2.38;;;;;;;;;;5084769;28;20032;-82
2021/06/30 09:08:47;;;;;;;4.00;2.63;;;;;;;;;;5072466;28;20493;-83
2021/06/30 09:11:15;;;;;;;3.15;2.22;;;;;;;;;;5090419;28;20041;-83
2021/06/30 09:13:40;;;;;;;4.07;2.30;;;;;;;;;;5090544;28;20036;-84
2021/06/30 09:16:06;;;;;;;3.42;2.45;;;;;;;;;;5085262;28;20061;-81
2021/06/30 09:18:37;;;;;;;9.80;2.70;;;;;;;;;;5088629;28;20090;-82
2021/06/30 09:21:22;;;;;;;8.70;2.63;;;;;;;;;;5089197;28;20040;-82
2021/06/30 09:24:17;;;;;;;2.92;2.28;;;;;;;;;;5081050;28;20359;-78
2021/06/30 09:26:54;;;;;;;4.47;2.15;;;;;;;;;;5080224;28;20096;-80
2021/06/30 09:29:21;;;;;;;2.60;2.38;;;;;;;;;;5083369;28;20048;-79
2021/06/30 09:31:48;;;;;;;4.22;2.53;;;;;;;;;;5081490;28;20131;-79
2021/06/30 09:34:24;;;;;;;3.80;2.42;;;;;;;;;;5081739;28;20033;-78
2021/06/30 09:36:51;;;;;;;2.83;2.35;;;;;;;;;;5063444;28;20090;-79
2021/06/30 09:39:16;;;;;;;2.20;1.88;;;;;;;;;;5079988;28;20037;-79
2021/06/30 09:41:45;;;;;;;4.88;2.42;;;;;;;;;;5082636;28;20112;-79
2021/06/30 09:44:16;;;;;;;7.15;2.58;;;;;;;;;;5082455;28;20094;-80
2021/06/30 09:46:43;;;;;;;3.90;2.63;;;;;;;;;;5080883;28;20056;-79
2021/06/30 09:49:16;;;;;;;2.72;1.98;;;;;;;;;;5082713;28;20063;-79
2021/06/30 09:51:44;;;;;;;3.22;2.17;;;;;;;;;;5082999;28;20050;-79
2021/06/30 09:54:17;;;;;;;2.75;2.13;;;;;;;;;;5065299;28;20032;-79
2021/06/30 09:56:58;;;;;;;3.13;2.10;;;;;;;;;;5062346;28;20056;-79
2021/06/30 09:59:35;;;;;;;4.90;2.22;;;;;;;;;;5060719;28;20040;-79
2021/06/30 10:02:02;;;;;;;5.53;1.95;;;;;;;;;;5061887;28;20025;-79
2021/06/30 10:04:34;;;;;;;4.60;1.60;;;;;;;;;;5061645;28;20089;-78
2021/06/30 10:07:07;;;;;;;2.72;2.00;;;;;;;;;;5060515;28;20416;-80
2021/06/30 10:09:33;;;;;;;2.78;1.98;;;;;;;;;;5075591;28;20068;-80
2021/06/30 10:12:01;;;;;;;4.85;3.92;;;;;;;;;;5060019;28;20044;-79
2021/06/30 10:14:28;;;;;;;19.13;12.57;;;;;;;;;;5060115;28;20155;-79
2021/06/30 10:16:54;;;;;;;10.45;7.05;;;;;;;;;;5057902;28;20570;-79
2021/06/30 10:19:19;;;;;;;3.05;2.47;;;;;;;;;;5058239;28;20056;-79
2021/06/30 10:21:46;;;;;;;1.77;1.60;;;;;;;;;;5059768;28;20044;-79
2021/06/30 10:24:14;;;;;;;12.23;2.85;;;;;;;;;;5066881;28;20068;-79
2021/06/30 10:26:40;;;;;;;3.13;1.63;;;;;;;;;;5082171;28;20482;-79
2021/06/30 10:29:05;;;;;;;3.47;1.80;;;;;;;;;;5080999;28;20079;-78
2021/06/30 10:31:35;;;;;;;4.10;1.88;;;;;;;;;;5082289;28;20033;-79
2021/06/30 10:34:07;;;;;;;3.78;1.80;;;;;;;;;;5077276;28;20036;-77
2021/06/30 10:36:44;;;;;;;4.38;1.85;;;;;;;;;;5077250;28;20044;-77
2021/06/30 10:39:10;;;;;;;1.98;1.70;;;;;;;;;;5078352;28;20032;-77
2021/06/30 10:41:53;;;;;;;1.83;1.65;;;;;;;;;;5082964;28;20092;-80
2021/06/30 10:44:26;;;;;;;2.08;1.83;;;;;;;;;;5076743;28;20074;-77
2021/06/30 10:46:53;;;;;;;2.75;1.75;;;;;;;;;;5076501;28;20044;-78
2021/06/30 10:49:25;;;;;;;1.85;1.55;;;;;;;;;;5077128;28;20444;-76
2021/06/30 10:52:00;;;;;;;1.98;1.27;;;;;;;;;;5077252;28;20037;-80
2021/06/30 10:54:31;;;;;;;2.80;1.33;;;;;;;;;;5085694;28;20044;-79
2021/06/30 10:57:18;;;;;;;1.95;1.48;;;;;;;;;;5085444;28;20055;-79
2021/06/30 11:00:03;;;;;;;1.40;1.20;;;;;;;;;;5083433;28;20454;-79
2021/06/30 11:02:31;;;;;;;1.42;0.98;;;;;;;;;;5076393;28;20082;-78
2021/06/30 11:05:17;;;;;;;1.30;1.20;;;;;;;;;;5076198;28;20040;-77
2021/06/30 11:07:46;;;;;;;2.10;1.58;;;;;;;;;;5075605;28;20024;-78
2021/06/30 11:10:19;;;;;;;2.40;1.48;;;;;;;;;;5076251;28;20036;-77
2021/06/30 11:12:59;;;;;;;2.35;1.33;;;;;;;;;;5076147;28;20044;-79
2021/06/30 11:15:40;;;;;;;1.35;1.13;;;;;;;;;;5074926;28;20082;-77
2021/06/30 11:18:08;;;;;;;1.42;1.33;;;;;;;;;;5075829;28;20118;-77
2021/06/30 11:20:48;;;;;;;1.45;1.23;;;;;;;;;;5076225;28;20036;-78
2021/06/30 11:23:27;;;;;;;2.58;1.20;;;;;;;;;;5074498;28;20390;-77
2021/06/30 11:25:54;;;;;;;1.70;1.48;;;;;;;;;;5055756;28;20098;-77
2021/06/30 11:28:35;;;;;;;1.73;1.25;;;;;;;;;;5055457;28;20502;-77
2021/06/30 11:31:25;;;;;;;1.23;1.13;;;;;;;;;;5055749;28;20486;-77
2021/06/30 11:34:26;;;;;;;2.28;1.40;;;;;;;;;;5055686;28;20029;-77
2021/06/30 11:36:51;;;;;;;2.80;1.20;;;;;;;;;;5032640;28;20029;-77
2021/06/30 11:39:20;;;;;;;1.27;1.10;;;;;;;;;;5045471;28;20128;-77
2021/06/30 11:41:49;;;;;;;1.00;0.93;;;;;;;;;;5054604;28;20422;-77
2021/06/30 11:44:17;;;;;;;1.00;1.00;;;;;;;;;;5037599;28;20498;-77
2021/06/30 11:46:44;;;;;;;0.95;0.90;;;;;;;;;;5055244;28;20076;-79
2021/06/30 11:49:11;;;;;;;1.00;1.00;;;;;;;;;;5054093;28;20037;-77
2021/06/30 11:51:37;;;;;;;2.58;1.20;;;;;;;;;;5055547;28;20045;-77
2021/06/30 11:54:03;;;;;;;1.67;1.10;;;;;;;;;;5059458;28;20026;-77
2021/06/30 11:56:31;;;;;;;0.90;0.90;;;;;;;;;;5075242;28;20566;-77
2021/06/30 11:58:57;;;;;;;1.80;1.10;;;;;;;;;;5075159;28;20049;-77
2021/06/30 12:01:31;;;;;;;3.22;1.25;;;;;;;;;;5075217;28;20037;-77
2021/06/30 12:04:15;;;;;;;1.42;1.15;;;;;;;;;;5075242;28;20597;-77
2021/06/30 12:06:42;;;;;;;1.00;0.98;;;;;;;;;;5075323;28;20037;-78
2021/06/30 12:09:13;;;;;;;1.80;1.40;;;;;;;;;;5085828;28;20418;-79
2021/06/30 12:12:00;;;;;;;1.45;1.10;;;;;;;;;;5080964;28;20198;-77
2021/06/30 12:14:37;;;;;;;2.05;1.30;;;;;;;;;;5078193;28;20448;-82
2021/06/30 12:17:05;;;;;;;1.70;1.27;;;;;;;;;;5085134;28;20040;-82
2021/06/30 12:19:35;;;;;;;4.22;1.05;;;;;;;;;;5090129;28;20112;-81
2021/06/30 12:22:14;;;;;;;0.90;0.90;;;;;;;;;;5070820;28;20032;-80
2021/06/30 12:24:40;;;;;;;1.15;0.88;;;;;;;;;;5086195;28;20420;-80
2021/06/30 12:27:07;;;;;;;1.90;1.17;;;;;;;;;;5086043;28;20036;-80
2021/06/30 12:29:35;;;;;;;2.72;1.15;;;;;;;;;;5087349;28;20044;-80
2021/06/30 12:32:03;;;;;;;1.50;1.08;;;;;;;;;;5084751;28;20119;-80
2021/06/30 12:34:28;;;;;;;1.30;1.10;;;;;;;;;;5088044;28;20028;-80
2021/06/30 12:36:54;;;;;;;4.65;0.88;;;;;;;;;;5091832;28;20039;-80
2021/06/30 12:39:31;;;;;;;2.97;1.40;;;;;;;;;;5091821;28;20040;-80
2021/06/30 12:42:06;;;;;;;1.63;1.15;;;;;;;;;;5092396;28;20025;-81
2021/06/30 12:44:59;;;;;;;1.77;1.17;;;;;;;;;;5090225;28;20033;-80
2021/06/30 12:47:26;;;;;;;1.13;1.08;;;;;;;;;;5090374;28;20066;-80
2021/06/30 12:50:07;;;;;;;1.73;1.40;;;;;;;;;;5086723;28;20056;-80
2021/06/30 12:52:33;;;;;;;1.70;1.35;;;;;;;;;;5090698;28;20048;-80
2021/06/30 12:55:11;;;;;;;1.65;0.90;;;;;;;;;;5074286;28;20498;-80
2021/06/30 12:58:03;;;;;;;4.85;0.90;;;;;;;;;;5090212;28;20036;-80
2021/06/30 13:00:31;;;;;;;0.90;0.90;;;;;;;;;;5073167;28;20040;-80
2021/06/30 13:03:12;;;;;;;1.40;1.10;;;;;;;;;;5090552;28;20041;-80
2021/06/30 13:05:38;;;;;;;1.20;1.20;;;;;;;;;;5074715;28;20158;-80
2021/06/30 13:08:04;;;;;;;1.25;1.15;;;;;;;;;;5090716;28;20035;-80
2021/06/30 13:10:29;;;;;;;1.30;0.93;;;;;;;;;;5091099;28;20131;-80
2021/06/30 13:13:08;;;;;;;1.23;1.20;;;;;;;;;;5090144;28;20040;-80
2021/06/30 13:15:35;;;;;;;1.60;1.15;;;;;;;;;;5073727;28;20037;-80
2021/06/30 13:18:17;;;;;;;1.20;1.10;;;;;;;;;;5071979;28;20036;-80
2021/06/30 13:20:42;;;;;;;1.60;1.30;;;;;;;;;;5090339;28;20103;-80
2021/06/30 13:23:08;;;;;;;1.45;1.20;;;;;;;;;;5090778;28;20051;-80
2021/06/30 13:25:51;;;;;;;1.23;1.13;;;;;;;;;;5055163;28;20039;-80
2021/06/30 13:28:43;;;;;;;2.58;1.70;;;;;;;;;;5068962;28;20092;-80
2021/06/30 13:34:23;;;;;;;1.27;1.15;;;;;;;;;;5085936;28;20071;-80
2021/06/30 13:36:59;;;;;;;1.33;1.00;;;;;;;;;;5068861;28;20539;-80
2021/06/30 13:39:25;;;;;;;1.42;1.00;;;;;;;;;;5067152;28;20036;-79
2021/06/30 13:41:51;;;;;;;1.63;1.10;;;;;;;;;;5061694;28;20017;-77
2021/06/30 13:44:24;;;;;;;1.75;0.90;;;;;;;;;;5054517;28;20040;-77
2021/06/30 13:46:49;;;;;;;1.35;1.00;;;;;;;;;;5052916;28;20052;-78
2021/06/30 13:49:14;;;;;;;1.58;1.15;;;;;;;;;;5054766;28;20039;-77
2021/06/30 13:51:40;;;;;;;2.65;1.10;;;;;;;;;;5057530;28;20059;-77
2021/06/30 13:54:05;;;;;;;0.90;0.90;;;;;;;;;;5073436;28;20087;-77
2021/06/30 13:56:31;;;;;;;2.45;1.27;;;;;;;;;;5054529;28;20041;-77
2021/06/30 13:58:58;;;;;;;3.42;1.30;;;;;;;;;;5053421;28;20040;-77
2021/06/30 14:01:24;;;;;;;4.13;0.98;;;;;;;;;;5053273;28;20025;-77
2021/06/30 14:03:49;;;;;;;2.78;0.77;;;;;;;;;;5053417;28;20531;-77
2021/06/30 14:06:14;;;;;;;2.83;1.35;;;;;;;;;;5053395;28;20060;-78
2021/06/30 14:08:40;;;;;;;1.00;1.00;;;;;;;;;;5053310;28;20490;-77
2021/06/30 14:11:06;;;;;;;2.40;1.00;;;;;;;;;;5053076;28;20051;-78
2021/06/30 14:13:32;;;;;;;0.82;0.80;;;;;;;;;;5053041;28;20033;-77
2021/06/30 14:15:58;;;;;;;2.25;1.00;;;;;;;;;;5053726;28;20041;-78
2021/06/30 14:18:23;;;;;;;0.75;0.75;;;;;;;;;;5053956;28;20037;-77
2021/06/30 14:20:50;;;;;;;6.10;1.17;;;;;;;;;;5051983;28;20072;-77
2021/06/30 14:23:19;;;;;;;1.50;0.70;;;;;;;;;;5053161;28;20029;-78
2021/06/30 14:25:46;;;;;;;1.30;1.00;;;;;;;;;;5072791;28;20427;-77
2021/06/30 14:28:13;;;;;;;2.25;0.80;;;;;;;;;;5071945;28;20043;-77
2021/06/30 14:30:41;;;;;;;0.80;0.80;;;;;;;;;;5073047;28;20594;-78
2021/06/30 14:33:07;;;;;;;0.85;0.85;;;;;;;;;;5073226;28;20127;-77
2021/06/30 14:35:33;;;;;;;1.65;0.73;;;;;;;;;;5073637;28;20478;-79
2021/06/30 14:37:58;;;;;;;0.95;0.90;;;;;;;;;;5074879;28;20033;-79
2021/06/30 14:40:24;;;;;;;1.05;0.60;;;;;;;;;;5075978;28;20044;-79
2021/06/30 14:42:50;;;;;;;3.22;0.90;;;;;;;;;;5074370;28;20032;-79
2021/06/30 14:45:17;;;;;;;7.68;1.00;;;;;;;;;;5074916;28;20056;-79
2021/06/30 14:47:43;;;;;;;1.10;0.90;;;;;;;;;;5073724;28;20121;-79
2021/06/30 14:50:13;;;;;;;3.25;0.73;;;;;;;;;;5074475;28;20051;-79